الصفحة الرئيسية
METAR-TAF:

METAR-TAF

مطار :

مطار كيفلافيك الدولي

Keflavík, أيسلندا

دائرة عرض: 63-58N, خط طول: 022-36W, ارتفاع: 52 متر

مراقبة الطقس الحالي

تاريخ ووقت الإصدار 36 دقيقة قبل الساعة 01:00UTC
ريح 13 عقدة من الشرق
درجة الحرارة 5°درجة مئوية
الرطوبة 81%
ضغط 1003 hPa
الرؤية 10 كم أو أكثر
غيوم مفككة على ارتفاع 2900 قدم

METAR: BIKF 210100Z 08013KT 9999 BKN029 05/02 Q1003

زمن: 01:36 (01:36 UTC)

توقعات

تاريخ ووقت الإصدار 2ساعات و 48 دقيقة قبل الساعة 22:48UTC
التوقعات صالحة من21 الساعة 00 UTC إلى 22 الساعة 00 UTC
ريح 15 عقدة من الشرق
الرؤية 10 كم أو أكثر
غيوم مفككة على ارتفاع 1500 قدم
ملبد بالغيوم على ارتفاع 2500 قدم
زخات من الأمطار الخفيفة
نظرية الاحتمالات 40% :
مؤقت
من 21 الساعة 07 UTC إلى 22 الساعة 00 UTC
الرؤية: 5000 متر
ملبد بالغيوم على ارتفاع 1500 قدم
مطر, غشاء

TAF: BIKF 202248Z 2100/2200 09015KT 9999 -SHRA BKN015 OVC025 TX06/2118Z TN03/2103Z PROB40 TEMPO 2107/2200 5000 RA BR OVC015

أرصاد الطقس والتوقعات من أكثر من 4000 مطار (تقارير الطقس للمطار METAR والتنبؤ بالطقس بالمطارTAF).

المحطات المتاحة هي النقط الصفراء والحمراء على الخريطة.

حرك المؤشر فوق النقطة لمعرفة اسم المحطة.

ثم انقر لمعرفة أرصاد وتوقعات الطقس.

لتغيير الخارطة: اضغط على الأزرار الخضراء مع رمز الصليب الأسود للتكبير. على الزر الأخضر مع شرطة للتصغير، أو على الأسهم الخضراء للخرائط المجاورة.


METAR-TAF: